createdAt,value
2018-07-23T00:02:13.962Z,76.58
2018-07-23T00:04:44.078Z,76.55
2018-07-23T00:07:14.306Z,76.40
2018-07-23T00:09:44.588Z,76.82
2018-07-23T00:12:14.818Z,76.69
2018-07-23T00:14:44.859Z,77.17
2018-07-23T00:17:15.111Z,76.69
2018-07-23T00:19:48.091Z,77.16
2018-07-23T00:22:18.257Z,77.52
2018-07-23T00:24:48.501Z,77.72
2018-07-23T00:27:18.643Z,77.57
2018-07-23T00:29:48.732Z,77.43
2018-07-23T00:32:18.693Z,77.90
2018-07-23T00:34:49.206Z,78.05
2018-07-23T00:37:19.347Z,78.20
2018-07-23T00:39:49.415Z,78.75
2018-07-23T00:42:19.645Z,78.26
2018-07-23T00:44:49.707Z,78.54
2018-07-23T00:47:19.774Z,78.87
2018-07-23T00:49:49.963Z,78.09
2018-07-23T00:52:20.123Z,78.27
2018-07-23T00:54:50.301Z,79.02
2018-07-23T00:57:20.462Z,78.67
2018-07-23T00:59:50.872Z,78.88
2018-07-23T01:02:21.040Z,78.83
2018-07-23T01:04:51.169Z,79.15
2018-07-23T01:07:21.090Z,79.63
2018-07-23T01:09:51.623Z,79.32
2018-07-23T01:12:29.615Z,79.14
2018-07-23T01:14:59.534Z,79.50
2018-07-23T01:17:29.668Z,79.55
2018-07-23T01:20:00.591Z,80.44
2018-07-23T01:22:30.694Z,80.70
2018-07-23T01:25:00.889Z,81.16
2018-07-23T01:27:30.948Z,81.25
2018-07-23T01:30:01.214Z,81.31
2018-07-23T01:32:31.282Z,81.86
2018-07-23T01:35:01.504Z,82.21
2018-07-23T01:37:31.622Z,82.31
2018-07-23T01:40:01.785Z,81.75
2018-07-23T01:42:32.005Z,82.28
2018-07-23T01:45:02.165Z,81.93
2018-07-23T01:47:32.597Z,81.94
2018-07-23T01:50:02.777Z,81.92
2018-07-23T01:52:32.942Z,82.16
2018-07-23T01:55:03.060Z,82.38
2018-07-23T01:57:33.507Z,82.51
2018-07-23T02:00:03.461Z,82.84
2018-07-23T02:02:34.209Z,82.89
2018-07-23T02:05:04.745Z,83.00
2018-07-23T02:07:34.884Z,83.43
2018-07-23T02:10:05.028Z,83.74
2018-07-23T02:12:35.161Z,83.32
2018-07-23T02:15:05.151Z,83.92
2018-07-23T02:17:35.111Z,84.14
2018-07-23T02:20:05.863Z,84.35
2018-07-23T02:22:35.952Z,85.02
2018-07-23T02:25:06.084Z,85.36
2018-07-23T02:27:36.210Z,85.81
2018-07-23T02:30:07.054Z,85.75
2018-07-23T02:32:37.155Z,86.13
2018-07-23T02:35:07.437Z,86.33
2018-07-23T02:37:37.534Z,85.93
2018-07-23T02:40:08.710Z,86.54
2018-07-23T02:42:38.779Z,87.08
2018-07-23T02:45:12.902Z,87.12
2018-07-23T02:47:43.177Z,87.26
2018-07-23T02:50:13.344Z,87.72
2018-07-23T02:52:43.431Z,88.17
2018-07-23T02:55:13.540Z,87.97
2018-07-23T02:57:59.666Z,87.73
2018-07-23T03:00:29.794Z,88.32
2018-07-23T03:02:59.874Z,88.63
2018-07-23T03:05:31.112Z,88.39
2018-07-23T03:08:01.148Z,88.77
2018-07-23T03:10:31.420Z,88.98
2018-07-23T03:13:01.421Z,88.92
2018-07-23T03:15:31.696Z,89.37
2018-07-23T03:18:01.755Z,88.82
2018-07-23T03:20:31.930Z,89.22
2018-07-23T03:23:02.073Z,89.77
2018-07-23T03:25:32.146Z,89.50
2018-07-23T03:28:02.338Z,89.91
2018-07-23T03:30:32.457Z,90.33
2018-07-23T03:33:02.586Z,90.03
2018-07-23T03:35:32.921Z,90.72
2018-07-23T03:38:03.171Z,91.14
2018-07-23T03:40:33.207Z,91.45
2018-07-23T03:43:03.144Z,91.44
2018-07-23T03:45:33.977Z,91.43
2018-07-23T03:48:04.030Z,91.39
2018-07-23T03:50:34.102Z,91.50
2018-07-23T03:53:04.272Z,91.26
2018-07-23T03:55:34.663Z,90.72
2018-07-23T03:58:04.844Z,90.21
2018-07-23T04:00:34.885Z,90.29
2018-07-23T04:03:05.116Z,90.23
2018-07-23T04:05:35.269Z,89.85
2018-07-23T04:08:05.363Z,89.85
2018-07-23T04:13:21.621Z,89.81
2018-07-23T04:15:51.832Z,89.35
2018-07-23T04:18:21.792Z,89.63
2018-07-23T04:20:51.944Z,89.49
2018-07-23T04:23:22.810Z,89.31
2018-07-23T04:25:52.903Z,88.80
2018-07-23T04:28:22.956Z,89.08
2018-07-23T04:30:53.084Z,88.05
2018-07-23T04:33:23.358Z,87.68
2018-07-23T04:35:53.418Z,87.38
2018-07-23T04:38:23.535Z,86.93
2018-07-23T04:40:53.430Z,86.62
2018-07-23T04:43:23.843Z,85.96
2018-07-23T04:45:53.890Z,85.22
2018-07-23T04:48:23.992Z,84.84
2018-07-23T04:50:54.376Z,84.90
2018-07-23T04:53:24.652Z,85.10
2018-07-23T04:55:54.944Z,85.26
2018-07-23T04:58:24.874Z,83.69
2018-07-23T05:00:55.027Z,84.20
2018-07-23T05:03:24.936Z,83.38
2018-07-23T05:05:55.341Z,83.75
2018-07-23T05:08:25.537Z,83.21
2018-07-23T05:10:55.776Z,82.63
2018-07-23T05:13:25.832Z,82.44
2018-07-23T05:15:55.859Z,82.21
2018-07-23T05:18:25.993Z,81.62
2018-07-23T05:20:56.213Z,81.37
2018-07-23T05:23:26.705Z,79.81
2018-07-23T05:25:57.075Z,80.33
2018-07-23T05:28:26.968Z,78.96
2018-07-23T05:30:57.058Z,78.43
2018-07-23T05:33:27.050Z,79.03
2018-07-23T05:35:57.083Z,79.43
2018-07-23T05:38:28.089Z,78.44
2018-07-23T05:40:58.067Z,78.36
2018-07-23T05:43:27.992Z,77.88
2018-07-23T05:45:58.133Z,77.16
2018-07-23T05:48:28.144Z,77.41
2018-07-23T05:50:58.438Z,76.49
2018-07-23T05:53:28.665Z,76.48
2018-07-23T05:55:58.553Z,75.55
2018-07-23T05:58:28.629Z,75.33
2018-07-23T06:00:58.935Z,75.18
2018-07-23T06:03:29.248Z,75.45
2018-07-23T06:05:59.498Z,74.37
2018-07-23T06:08:29.428Z,74.27
2018-07-23T06:10:59.500Z,73.21
2018-07-23T06:13:29.615Z,73.36
2018-07-23T06:15:59.830Z,72.92
2018-07-23T06:18:30.287Z,73.14
2018-07-23T06:21:00.415Z,72.67
2018-07-23T06:23:31.634Z,72.25
2018-07-23T06:26:01.805Z,71.66
2018-07-23T06:28:32.050Z,70.51
2018-07-23T06:31:02.268Z,70.97
2018-07-23T06:33:32.607Z,69.97
2018-07-23T06:36:02.644Z,69.30
2018-07-23T06:38:33.031Z,69.61
2018-07-23T06:41:02.980Z,69.12
2018-07-23T06:43:33.177Z,69.93
2018-07-23T06:46:03.476Z,69.54
2018-07-23T06:48:34.872Z,70.06
2018-07-23T06:51:05.032Z,68.84
2018-07-23T06:53:35.227Z,69.56
2018-07-23T06:56:05.396Z,70.04
2018-07-23T06:58:35.491Z,70.63
2018-07-23T07:01:05.598Z,70.17
2018-07-23T07:03:35.629Z,70.07
2018-07-23T07:06:06.042Z,69.38
2018-07-23T07:08:36.300Z,69.23
2018-07-23T07:11:06.534Z,68.91
2018-07-23T07:13:37.713Z,68.22
2018-07-23T07:16:08.733Z,68.70
2018-07-23T07:18:39.016Z,67.72
2018-07-23T07:21:09.373Z,68.39
2018-07-23T07:23:39.747Z,67.19
2018-07-23T07:26:09.887Z,68.19
2018-07-23T07:28:39.889Z,68.30
2018-07-23T07:31:09.958Z,66.46
2018-07-23T07:33:40.108Z,65.85
2018-07-23T07:36:10.279Z,65.01
2018-07-23T07:38:40.570Z,64.75
2018-07-23T07:41:11.049Z,66.12
2018-07-23T07:43:41.166Z,65.32
2018-07-23T07:46:11.377Z,64.45
2018-07-23T07:48:41.605Z,65.98
2018-07-23T07:51:11.685Z,64.16
2018-07-23T07:53:41.857Z,62.43
2018-07-23T07:56:12.144Z,61.95
2018-07-23T07:58:42.520Z,62.13
2018-07-23T08:01:12.723Z,61.13
2018-07-23T08:03:42.851Z,61.85
2018-07-23T08:06:13.001Z,60.10
2018-07-23T08:08:43.462Z,57.07
2018-07-23T08:11:13.714Z,56.24
2018-07-23T08:13:46.716Z,56.50
2018-07-23T08:16:16.954Z,54.91
2018-07-23T08:18:47.235Z,55.82
2018-07-23T08:21:17.397Z,54.24
2018-07-23T08:23:47.688Z,54.95
2018-07-23T08:26:18.166Z,54.36
2018-07-23T08:28:48.570Z,53.83
2018-07-23T08:31:18.837Z,53.88
2018-07-23T08:33:49.018Z,54.78
2018-07-23T08:36:19.303Z,52.60
2018-07-23T08:38:49.626Z,52.54
2018-07-23T08:41:19.824Z,50.98
2018-07-23T08:43:50.426Z,52.36
2018-07-23T08:46:21.544Z,51.49
2018-07-23T08:48:51.948Z,51.95
2018-07-23T08:51:22.208Z,51.00
2018-07-23T08:53:52.286Z,51.65
2018-07-23T08:56:22.439Z,50.15
2018-07-23T08:58:52.485Z,52.42
2018-07-23T09:01:30.546Z,49.42
2018-07-23T09:04:00.665Z,51.33
2018-07-23T09:06:30.754Z,51.06
2018-07-23T09:09:01.204Z,50.93
2018-07-23T09:11:31.225Z,49.51
2018-07-23T09:14:02.244Z,51.37
2018-07-23T09:16:32.583Z,50.57
2018-07-23T09:19:02.809Z,50.01
2018-07-23T09:21:36.279Z,50.15
2018-07-23T09:24:06.588Z,50.35
2018-07-23T09:26:37.092Z,49.25
2018-07-23T09:29:07.398Z,50.27
2018-07-23T09:31:37.524Z,50.17
2018-07-23T09:34:07.740Z,49.04
2018-07-23T09:36:37.795Z,49.55
2018-07-23T09:39:10.197Z,49.60
2018-07-23T09:41:40.545Z,51.32
2018-07-23T09:44:10.989Z,51.23
2018-07-23T09:46:41.137Z,49.52
2018-07-23T09:49:11.128Z,48.78
2018-07-23T09:51:41.860Z,48.42
2018-07-23T09:54:11.997Z,49.14
2018-07-23T09:56:43.429Z,49.31
2018-07-23T09:59:13.843Z,48.47
2018-07-23T10:01:43.965Z,49.13
2018-07-23T10:04:14.274Z,49.64
2018-07-23T10:06:44.622Z,48.38
2018-07-23T10:09:15.885Z,49.92
2018-07-23T10:11:45.838Z,48.42
2018-07-23T10:14:16.046Z,48.72
2018-07-23T10:16:46.255Z,47.63
2018-07-23T10:19:16.256Z,47.40
2018-07-23T10:21:46.418Z,45.60
2018-07-23T10:24:16.670Z,46.22
2018-07-23T10:26:46.939Z,47.40
2018-07-23T10:29:17.200Z,46.67
2018-07-23T10:31:47.281Z,45.99
2018-07-23T10:34:19.290Z,44.73
2018-07-23T10:36:49.585Z,43.46
2018-07-23T10:39:19.610Z,45.31
2018-07-23T10:41:49.776Z,45.58
2018-07-23T10:44:19.660Z,44.27
2018-07-23T10:46:50.722Z,43.49
2018-07-23T10:49:20.716Z,42.41
2018-07-23T10:51:50.939Z,43.25
2018-07-23T10:54:21.120Z,44.79
2018-07-23T10:56:51.310Z,44.24
2018-07-23T10:59:21.743Z,38.62
2018-07-23T11:01:51.732Z,40.85
2018-07-23T11:04:21.953Z,40.87
2018-07-23T11:06:52.164Z,39.11
2018-07-23T11:09:22.480Z,39.95
2018-07-23T11:11:53.617Z,38.25
2018-07-23T11:14:24.898Z,39.23
2018-07-23T11:16:55.781Z,38.79
2018-07-23T11:19:27.007Z,38.39
2018-07-23T11:21:57.231Z,38.29
2018-07-23T11:24:27.396Z,36.21
2018-07-23T11:26:57.701Z,36.03
2018-07-23T11:29:27.653Z,36.20
2018-07-23T11:31:57.875Z,35.46
2018-07-23T11:34:28.254Z,33.80
2018-07-23T11:36:58.394Z,34.04
2018-07-23T11:39:28.613Z,32.66
2018-07-23T11:41:58.549Z,32.55
2018-07-23T11:44:28.790Z,33.09
2018-07-23T11:46:58.628Z,33.74
2018-07-23T11:49:29.852Z,33.03
2018-07-23T11:51:59.809Z,33.69
2018-07-23T11:54:31.102Z,33.86
2018-07-23T11:57:02.578Z,33.39
2018-07-23T11:59:32.956Z,34.59
2018-07-23T12:02:06.176Z,30.87
2018-07-23T12:04:36.515Z,31.70
2018-07-23T12:07:07.013Z,32.24
2018-07-23T12:09:37.207Z,30.99
2018-07-23T12:12:07.857Z,32.42
2018-07-23T12:14:39.337Z,31.94
2018-07-23T12:17:09.404Z,31.05
2018-07-23T12:19:39.640Z,31.08
2018-07-23T12:22:09.829Z,30.75
2018-07-23T12:24:40.032Z,29.77
2018-07-23T12:27:10.193Z,29.40
2018-07-23T12:29:40.085Z,32.39
2018-07-23T12:32:10.559Z,31.02
2018-07-23T12:34:40.596Z,30.46
2018-07-23T12:37:10.879Z,30.48
2018-07-23T12:39:41.019Z,28.39
2018-07-23T12:42:10.939Z,28.94
2018-07-23T12:44:41.009Z,29.47
2018-07-23T12:47:12.027Z,29.22
2018-07-23T12:49:42.325Z,29.02
2018-07-23T12:52:12.186Z,28.49
2018-07-23T12:54:42.282Z,28.15
2018-07-23T12:57:12.243Z,26.82
2018-07-23T12:59:42.492Z,27.48
2018-07-23T13:02:12.747Z,27.62
2018-07-23T13:04:42.836Z,26.63
2018-07-23T13:07:13.009Z,28.83
2018-07-23T13:09:43.134Z,26.77
2018-07-23T13:12:13.327Z,27.90
2018-07-23T13:14:43.550Z,27.64
2018-07-23T13:17:14.081Z,27.62
2018-07-23T13:19:44.125Z,27.65
2018-07-23T13:22:15.812Z,28.38
2018-07-23T13:24:45.834Z,28.24
2018-07-23T13:27:16.127Z,27.18
2018-07-23T13:29:48.141Z,27.87
2018-07-23T13:32:18.280Z,26.74
2018-07-23T13:34:48.638Z,28.52
2018-07-23T13:37:18.934Z,27.82
2018-07-23T13:39:49.296Z,27.95
2018-07-23T13:42:19.417Z,28.27
2018-07-23T13:44:49.598Z,28.26
2018-07-23T13:47:19.975Z,27.60
2018-07-23T13:49:49.756Z,28.67
2018-07-23T13:52:20.155Z,27.18
2018-07-23T13:54:50.375Z,26.51
2018-07-23T13:57:21.540Z,28.00
2018-07-23T13:59:51.956Z,27.73
2018-07-23T14:02:22.910Z,28.64
2018-07-23T14:04:53.500Z,27.22
2018-07-23T14:07:23.680Z,30.07
2018-07-23T14:09:53.815Z,28.04
2018-07-23T14:12:24.681Z,28.11
2018-07-23T14:14:54.667Z,29.19
2018-07-23T14:17:24.944Z,28.38
2018-07-23T14:19:55.336Z,27.60
2018-07-23T14:22:25.636Z,28.84
2018-07-23T14:24:55.946Z,28.55
2018-07-23T14:27:26.308Z,28.33
2018-07-23T14:29:56.519Z,28.64
2018-07-23T14:32:26.788Z,26.89
2018-07-23T14:34:56.928Z,27.27
2018-07-23T14:37:27.247Z,28.65
2018-07-23T14:39:57.509Z,27.99
2018-07-23T14:42:27.630Z,28.31
2018-07-23T14:44:58.080Z,28.38
2018-07-23T14:47:28.198Z,28.23
2018-07-23T14:49:59.379Z,27.04
2018-07-23T14:52:29.514Z,27.81
2018-07-23T14:54:59.741Z,28.42
2018-07-23T14:57:29.725Z,27.99
2018-07-23T15:00:00.212Z,27.44
2018-07-23T15:02:30.436Z,28.00
2018-07-23T15:05:00.688Z,29.01
2018-07-23T15:07:30.817Z,27.85
2018-07-23T15:10:01.050Z,27.40
2018-07-23T15:12:31.368Z,27.08
2018-07-23T15:15:01.321Z,27.19
2018-07-23T15:17:31.595Z,26.32
2018-07-23T15:20:01.623Z,27.35
2018-07-23T15:22:31.982Z,27.05
2018-07-23T15:25:02.155Z,26.83
2018-07-23T15:27:32.428Z,26.99
2018-07-23T15:30:02.709Z,26.74
2018-07-23T15:32:33.198Z,26.14
2018-07-23T15:35:03.352Z,27.10
2018-07-23T15:37:33.186Z,26.92
2018-07-23T15:40:04.821Z,26.28
2018-07-23T15:42:35.102Z,24.95
2018-07-23T15:45:05.513Z,25.12
2018-07-23T15:47:35.556Z,25.71
2018-07-23T15:50:05.972Z,26.16
2018-07-23T15:52:36.238Z,26.37
2018-07-23T15:55:06.402Z,26.84
2018-07-23T15:57:36.577Z,26.10
2018-07-23T16:00:07.238Z,26.72
2018-07-23T16:02:37.471Z,26.95
2018-07-23T16:05:07.866Z,26.05
2018-07-23T16:07:38.190Z,26.25
2018-07-23T16:10:09.240Z,27.70
2018-07-23T16:12:39.356Z,26.24
2018-07-23T16:15:09.887Z,26.74
2018-07-23T16:17:40.118Z,26.63
2018-07-23T16:20:10.539Z,27.78
2018-07-23T16:22:41.599Z,27.07
2018-07-23T16:25:11.839Z,27.04
2018-07-23T16:27:43.106Z,26.48
2018-07-23T16:30:13.211Z,26.70
2018-07-23T16:32:44.312Z,26.94
2018-07-23T16:35:14.772Z,26.21
2018-07-23T16:37:45.869Z,26.82
2018-07-23T16:40:16.145Z,26.44
2018-07-23T16:42:46.216Z,25.99
2018-07-23T16:45:17.303Z,26.33
2018-07-23T16:47:47.530Z,25.88
2018-07-23T16:50:17.664Z,26.61
2018-07-23T16:52:48.118Z,27.69
2018-07-23T16:55:18.256Z,27.89
2018-07-23T16:57:48.200Z,27.89
2018-07-23T17:00:18.398Z,27.91
2018-07-23T17:02:48.396Z,29.51
2018-07-23T17:05:18.755Z,30.14
2018-07-23T17:07:48.928Z,30.30
2018-07-23T17:10:20.182Z,30.75
2018-07-23T17:12:50.463Z,31.55
2018-07-23T17:15:20.485Z,31.92
2018-07-23T17:17:50.793Z,32.17
2018-07-23T17:20:21.193Z,32.34
2018-07-23T17:22:51.345Z,31.04
2018-07-23T17:25:21.150Z,32.03
2018-07-23T17:27:51.217Z,33.51
2018-07-23T17:30:21.290Z,33.25
2018-07-23T17:32:51.497Z,33.21
2018-07-23T17:35:21.701Z,33.85
2018-07-23T17:37:51.971Z,34.94
2018-07-23T17:40:22.283Z,35.39
2018-07-23T17:42:52.554Z,35.75
2018-07-23T17:45:22.839Z,35.78
2018-07-23T17:47:53.105Z,35.38
2018-07-23T17:50:23.566Z,36.64
2018-07-23T17:52:53.801Z,36.54
2018-07-23T17:55:23.841Z,37.63
2018-07-23T17:57:53.979Z,38.04
2018-07-23T18:00:24.383Z,38.23
2018-07-23T18:02:54.434Z,38.76
2018-07-23T18:05:24.761Z,40.24
2018-07-23T18:07:54.984Z,40.76
2018-07-23T18:10:24.893Z,41.15
2018-07-23T18:12:55.121Z,41.44
2018-07-23T18:15:25.148Z,42.33
2018-07-23T18:17:55.304Z,42.97
2018-07-23T18:20:25.479Z,43.42
2018-07-23T18:22:55.352Z,43.54
2018-07-23T18:25:25.641Z,44.19
2018-07-23T18:27:56.698Z,44.43
2018-07-23T18:30:26.854Z,44.20
2018-07-23T18:32:56.933Z,44.86
2018-07-23T18:35:27.082Z,45.13
2018-07-23T18:37:57.227Z,45.58
2018-07-23T18:40:27.354Z,45.51
2018-07-23T18:42:57.474Z,45.58
2018-07-23T18:45:27.839Z,46.12
2018-07-23T18:47:58.096Z,46.83
2018-07-23T18:50:28.171Z,47.26
2018-07-23T18:52:58.619Z,47.72
2018-07-23T18:55:29.156Z,48.56
2018-07-23T18:57:59.421Z,50.74
2018-07-23T19:00:29.332Z,51.26
2018-07-23T19:02:59.532Z,52.65
2018-07-23T19:05:29.711Z,53.70
2018-07-23T19:07:59.972Z,54.47
2018-07-23T19:10:30.055Z,54.59
2018-07-23T19:13:00.426Z,54.31
2018-07-23T19:15:30.579Z,54.59
2018-07-23T19:18:00.848Z,54.69
2018-07-23T19:20:31.062Z,55.11
2018-07-23T19:23:01.411Z,55.09
2018-07-23T19:25:31.759Z,55.13
2018-07-23T19:28:02.922Z,55.41
2018-07-23T19:30:33.110Z,56.01
2018-07-23T19:33:03.525Z,56.60
2018-07-23T19:35:33.836Z,56.78
2018-07-23T19:38:05.027Z,57.44
2018-07-23T19:40:35.372Z,57.15
2018-07-23T19:43:05.839Z,57.76
2018-07-23T19:45:35.989Z,58.20
2018-07-23T19:48:06.410Z,58.85
2018-07-23T19:50:36.591Z,59.24
2018-07-23T19:53:06.845Z,59.01
2018-07-23T19:55:37.140Z,59.71
2018-07-23T19:58:07.253Z,59.77
2018-07-23T20:00:37.646Z,60.06
2018-07-23T20:03:08.928Z,60.38
2018-07-23T20:05:39.132Z,61.32
2018-07-23T20:08:09.657Z,61.21
2018-07-23T20:10:40.848Z,61.38
2018-07-23T20:13:11.178Z,62.08
2018-07-23T20:15:41.366Z,63.18
2018-07-23T20:18:11.529Z,63.16
2018-07-23T20:20:41.789Z,63.79
2018-07-23T20:23:11.854Z,63.13
2018-07-23T20:25:42.183Z,63.16
2018-07-23T20:28:12.154Z,63.50
2018-07-23T20:30:42.625Z,63.20
2018-07-23T20:33:12.850Z,63.91
2018-07-23T20:35:44.084Z,63.75
2018-07-23T20:38:14.225Z,63.49
2018-07-23T20:40:44.440Z,63.47
2018-07-23T20:43:14.735Z,63.39
2018-07-23T20:45:45.809Z,64.34
2018-07-23T20:48:15.889Z,65.01
2018-07-23T20:50:46.380Z,64.89
2018-07-23T20:53:16.492Z,64.95
2018-07-23T20:55:47.355Z,64.98
2018-07-23T20:58:17.613Z,65.57
2018-07-23T21:00:47.960Z,65.53
2018-07-23T21:03:18.042Z,65.60
2018-07-23T21:05:48.484Z,65.92
2018-07-23T21:08:18.883Z,65.94
2018-07-23T21:10:49.420Z,65.42
2018-07-23T21:13:19.692Z,65.53
2018-07-23T21:15:50.220Z,66.12
2018-07-23T21:18:20.491Z,66.02
2018-07-23T21:20:50.432Z,65.61
2018-07-23T21:23:20.859Z,66.15
2018-07-23T21:25:52.042Z,66.28
2018-07-23T21:28:22.324Z,66.51
2018-07-23T21:30:52.305Z,66.35
2018-07-23T21:33:22.548Z,66.48
2018-07-23T21:35:52.669Z,66.48
2018-07-23T21:38:22.856Z,66.44
2018-07-23T21:40:53.632Z,67.60
2018-07-23T21:43:23.808Z,67.32
2018-07-23T21:45:54.172Z,68.08
2018-07-23T21:48:24.419Z,67.81
2018-07-23T21:50:54.611Z,67.90
2018-07-23T21:53:24.599Z,68.02
2018-07-23T21:55:54.641Z,68.40
2018-07-23T21:58:24.924Z,69.02
2018-07-23T22:00:55.057Z,68.54
2018-07-23T22:03:25.066Z,69.30
2018-07-23T22:05:55.476Z,69.61
2018-07-23T22:08:25.661Z,69.44
2018-07-23T22:10:55.922Z,69.57
2018-07-23T22:13:26.102Z,70.59
2018-07-23T22:15:56.320Z,71.54
2018-07-23T22:18:26.493Z,72.07
2018-07-23T22:21:03.072Z,72.04
2018-07-23T22:23:33.397Z,71.85
2018-07-23T22:26:03.314Z,70.91
2018-07-23T22:28:33.444Z,71.28
2018-07-23T22:31:04.776Z,71.55
2018-07-23T22:33:34.947Z,71.72
2018-07-23T22:36:05.290Z,71.94
2018-07-23T22:38:35.478Z,72.27
2018-07-23T22:41:05.591Z,72.92
2018-07-23T22:43:35.851Z,72.69
2018-07-23T22:46:05.851Z,72.70
2018-07-23T22:48:36.063Z,72.12
2018-07-23T22:51:06.265Z,71.76
2018-07-23T22:53:36.394Z,71.81
2018-07-23T22:56:06.685Z,71.30
2018-07-23T22:58:37.726Z,71.16
2018-07-23T23:01:07.854Z,70.79
2018-07-23T23:03:38.144Z,71.51
2018-07-23T23:06:08.310Z,71.04
2018-07-23T23:08:38.177Z,71.17
2018-07-23T23:11:08.768Z,71.17
2018-07-23T23:13:38.840Z,70.64
2018-07-23T23:16:09.461Z,70.20
2018-07-23T23:18:39.803Z,70.41
2018-07-23T23:21:10.043Z,70.13
2018-07-23T23:23:42.207Z,69.25
2018-07-23T23:26:13.253Z,70.02
2018-07-23T23:28:43.334Z,70.35
2018-07-23T23:31:14.417Z,70.32
2018-07-23T23:33:44.617Z,69.93
2018-07-23T23:36:14.720Z,70.66
2018-07-23T23:38:46.809Z,71.66
2018-07-23T23:41:16.660Z,72.93
2018-07-23T23:43:46.694Z,75.03
2018-07-23T23:46:16.822Z,76.33
2018-07-23T23:48:47.034Z,77.17
2018-07-23T23:51:17.111Z,78.15
2018-07-23T23:53:48.207Z,78.73
2018-07-23T23:56:21.172Z,79.23
2018-07-23T23:58:51.257Z,79.88
